Главная страница
METAR-TAF:

METAR-TAF

Аэропорты :

Griffiss_Air_Force_Base

Rome, Нью-Йорк, США

широта: 43-14N, долгота: 075-24W, высота над уровнем моря: 154 м

Текущие метеонаблюдения

Эта сводка был подготовлена 1 час и 15 минут назад, в 10:53 UTC
Штиль
Температура 6°C
Влажность 75%
Давление 1025 hPa
Видимость: 16.1 км
ясное небо

METAR: KRME 161053Z 00000KT 10SM CLR 06/02 A3027 RMK AO2 SLP248 T00610022

Время: 08:08 (12:08 UTC)

Прогноз

Эта сводка был подготовлена 48 минут назад, в 11:20 UTC
Прогноз действительный с 16-го 12 UTC до 17-го 12 UTC
Ветер 3 Узел переменных направлений
Видимость: 10 км
небольшая облачность на высоте 20000 фута
С 16-го 1700 UTC
Ветер 6 Узел от западный
Видимость: 10 км
Отдельные облака на высоте 7000 фута
С 17-го 0100 UTC
Ветер Узел от северный
Видимость: 10 км
ясное небо

TAF: KRME 161120Z 1612/1712 VRB03KT P6SM FEW200 FM161700 27006KT P6SM SCT070 FM170100 00000KT P6SM SKC

Метеонаблюдения и прогнозы для более 4000 аэропортов (сводки METAR и TAF).

Имеющиеся станции представлены на карте желтыми и красными точками.

Чтобы увидеть название станции, наведите на нее мышь.

Затем щелкните, чтобы увидеть метеонаблюдения и метеопрогнозы.

Управление картой: чтобы увеличить масштаб, щелкните зеленые кнопки с черным крестиком; чтобы уменьшить масштаб, щелкните зеленую кнопку с тире; для просмотра соседних карт щелкайте зеленые стрелки.


METAR-TAF: